• Join FlightAware (Why Join?)
  • Login
  • US Flag 
05:18PM EST


 

Airport Tracker/Info


-or-


 

Live Flight TrackerFlight Track Log ✈ VH-XFD ✈ 12-Jul-2013 ✈ YSSY / SYD - YPPH / PER

Flight Track Log - Related Links

Times and Time Zones

All times are in EDT time to prevent confusion due to time zone crossing. See the VH-XFD flight status page for this flight to view local times or setup timezone preferences in your user account.

Time Position Orientation Groundspeed Altitude Reporting Facility
EDT Latitude Longitude Course Direction KTS MPH feet Rate Location/Type
05:19AM -33.9380 151.1800 284° West 2 2  Level FlightAware
05:24AM -33.9380 151.1790 270° West 6 7 60 Level FlightAware
05:25AM -33.9380 151.1780 270° West 8 9 120 Level FlightAware
05:25AM -33.9390 151.1770 220° Southwest 10 12 120 Level FlightAware
05:26AM -33.9380 151.1760 320° Northwest 12 14 120 Level FlightAware
05:26AM -33.9370 151.1760 360° North 15 17 120 Level FlightAware
05:26AM -33.9350 151.1750 337° Northwest 16 18 120 Level FlightAware
05:27AM -33.9330 151.1750 360° North 16 18 120 Level FlightAware
05:27AM -33.9310 151.1740 337° Northwest 13 15 180 Level FlightAware
05:28AM -33.9300 151.1740 360° North 5 6 180 Level FlightAware
05:28AM -33.9300 151.1730 270° West 2 2 180 Level FlightAware
05:31AM -33.8651 150.9115 287° West  Level FlightAware Approximate
05:31AM -33.9300 151.1720 287° West 6 7  Level FlightAware
05:31AM -33.9310 151.1720 180° South 18 21 660 Level FlightAware
05:31AM -33.9400 151.1740 170° South 125 144 900 Level FlightAware
05:32AM -33.9510 151.1770 167° South 165 190 1,440 Level FlightAware
05:32AM -33.9690 151.1810 170° South 151 174 1,000 1,380 Climbing FlightAware
05:33AM -34.0030 151.1790 183° South 210 242 1,500 900 Climbing FlightAware
05:33AM -34.0240 151.1760 187° South 228 262 1,900 1,320 Climbing FlightAware
05:33AM -34.0470 151.1810 170° South 247 284 2,400 2,100 Climbing FlightAware
05:34AM -34.0740 151.1910 163° South 252 290 3,500 2,760 Climbing FlightAware
05:34AM -34.1050 151.2010 165° South 259 298 4,800 2,760 Climbing FlightAware
05:35AM -34.1670 151.2060 165° South 264 304 7,100 3,180 Climbing FlightAware
05:35AM -34.1701 151.2054 165° South 258 297 7,600 1,980 Climbing Aus ATC (RADAR)
05:35AM -34.1800 151.1920 222° Southwest 271 312 7,600 1,500 Level FlightAware
05:36AM -34.1860 151.1720 250° West 276 318 8,300 2,400 Climbing FlightAware
05:36AM -34.1790 151.1340 283° West 295 339 9,200 2,100 Climbing FlightAware
05:36AM -34.1630 151.1140 314° West 307 353 9,700 1,080 Climbing FlightAware
05:37AM -34.1080 151.0790 332° Northwest 351 404 10,200 1,500 Climbing FlightAware
05:38AM -34.0555 151.0356 332° Northwest 362 417 11,700 1,740 Climbing Aus ATC (RADAR)
05:38AM -34.0370 151.0200 332° Northwest 374 430 11,800 1,740 Climbing FlightAware
05:39AM -33.9830 150.9690 322° Northwest 373 429 13,300 2,280 Climbing FlightAware
05:39AM -33.9640 150.9340 303° West 373 429 14,000 2,400 Climbing FlightAware
05:40AM -33.9360 150.8550 293° West 373 429 15,700 2,340 Climbing FlightAware
05:40AM -33.9070 150.7810 295° West 379 436 17,100 2,040 Climbing FlightAware
05:41AM -33.8720 150.6940 296° West 381 438 18,600 2,040 Climbing FlightAware
05:42AM -33.8400 150.6160 296° West 382 440 20,000 2,760 Climbing FlightAware
05:42AM -33.8391 150.6131 296° West 371 427 20,500 1,680 Climbing Aus ATC (RADAR)
05:42AM -33.8130 150.5490 296° West 386 444 21,000 1,320 Climbing FlightAware
05:43AM -33.7780 150.4630 296° West 387 445 22,300 1,500 Climbing FlightAware
05:44AM -33.7450 150.3820 296° West 397 457 23,200 2,040 Climbing FlightAware
05:44AM -33.7440 150.3799 296° West 381 438 23,700 1,320 Climbing Aus ATC (RADAR)
05:44AM -33.7160 150.3020 296° West 395 455 24,100 1,200 Climbing FlightAware
05:44AM -33.7147 150.2988 296° West 388 447 24,500 1,320 Climbing Aus ATC (RADAR)
05:45AM -33.7190 150.2050 268° West 391 450 25,100 900 Climbing FlightAware
05:46AM -33.7270 150.1180 264° West 400 460 25,800 1,320 Climbing FlightAware
05:46AM -33.7332 150.0474 264° West 390 449 26,700 900 Climbing Aus ATC (RADAR)
05:46AM -33.7360 150.0150 264° West 408 470 26,500 2,040 Descending FlightAware
05:47AM -33.7420 149.9410 264° West 381 438 28,400 3,120 Climbing FlightAware
05:48AM -33.7480 149.8700 264° West 352 405 30,200 1,800 Climbing FlightAware
05:48AM -33.7560 149.7810 264° West 360 414 30,800 1,260 Climbing FlightAware
05:48AM -33.7560 149.7794 264° West 348 400 31,200 1,020 Climbing Aus ATC (RADAR)
05:49AM -33.7630 149.7020 264° West 363 418 31,500 900 Climbing FlightAware
05:49AM -33.7639 149.6899 264° West 350 403 31,900 1,980 Climbing Aus ATC (RADAR)
05:50AM -33.7678 149.6397 264° West 351 404 32,500 900 Climbing Aus ATC (RADAR)
05:50AM -33.7700 149.6150 264° West 360 414 32,500 1,260 Level FlightAware
05:50AM -33.7770 149.5310 264° West 350 403 33,700 1,020 Climbing FlightAware
05:51AM -33.7840 149.4450 264° West 358 412 34,000 180 Climbing FlightAware
05:52AM -33.7910 149.3640 264° West 379 436 34,000  Level FlightAware
05:53AM -33.7990 149.2690 264° West 390 449 34,000 300 Level FlightAware
05:53AM -33.8048 149.1913 264° West 380 437 34,400  Climbing Aus ATC (RADAR)
05:53AM -33.8060 149.1830 264° West 389 448 34,000  Descending FlightAware
05:54AM -33.8126 149.0945 264° West 380 437 34,400  Climbing Aus ATC (RADAR)
05:54AM -33.8130 149.0860 264° West 388 447 34,000  Descending FlightAware
05:55AM -33.8183 149.0198 264° West 378 435 34,400  Climbing Aus ATC (RADAR)
05:55AM -33.8190 149.0100 264° West 388 447 34,000  Descending FlightAware
05:55AM -33.8246 148.9446 264° West 380 437 34,400  Climbing Aus ATC (RADAR)
05:55AM -33.8270 148.9130 264° West 389 448 34,000 -480 Descending FlightAware
05:56AM -33.8330 148.8360 265° West 390 449 34,000  Level FlightAware
05:57AM -33.8400 148.7460 265° West 391 450 34,000  Level FlightAware
05:57AM -33.8470 148.6540 265° West 391 450 34,000 540 Level FlightAware
05:57AM -33.8482 148.6428 265° West 383 441 34,400  Climbing Aus ATC (RADAR)
05:58AM -33.8590 148.5780 265° West 391 450 34,000  Descending FlightAware
05:58AM -33.8608 148.5683 265° West 383 441 34,400  Climbing Aus ATC (RADAR)
05:59AM -33.8730 148.4940 259° West 391 450 34,000  Descending FlightAware
05:59AM -33.8871 148.4090 259° West 383 441 34,400  Climbing Aus ATC (RADAR)
06:00AM -33.8930 148.3740 259° West 391 450 34,000 -420 Descending FlightAware
06:00AM -33.9090 148.2770 259° West 392 451 34,000  Level FlightAware
06:01AM -33.9230 148.1930 259° West 395 455 34,000 300 Level FlightAware
06:02AM -33.9364 148.1077 259° West 388 447 34,400  Climbing Aus ATC (RADAR)
06:02AM -33.9390 148.0950 259° West 396 456 34,000 -480 Descending FlightAware
06:03AM -33.9560 147.9890 259° West 395 455 34,000  Level FlightAware
06:03AM -33.9700 147.8970 260° West 394 453 34,000  Level FlightAware
06:04AM -33.9840 147.8120 260° West 394 453 34,000 540 Level FlightAware
06:04AM -33.9851 147.8048 260° West 387 445 34,400 600 Climbing Aus ATC (RADAR)
06:05AM -33.9975 147.7294 260° West 388 447 34,400 -660 Level Aus ATC (RADAR)
06:05AM -33.9980 147.7240 260° West 394 453 34,000  Descending FlightAware
06:05AM -34.0111 147.6428 260° West 388 447 34,400  Climbing Aus ATC (RADAR)
06:05AM -34.0130 147.6270 260° West 395 455 34,000 -540 Descending FlightAware
06:06AM -34.0280 147.5380 258° West 395 455 34,000  Level FlightAware
06:07AM -34.0410 147.4530 260° West 395 455 34,000  Level FlightAware
06:07AM -34.0560 147.3550 260° West 395 455 34,000  Level FlightAware
06:08AM -34.0680 147.2790 259° West 396 456 34,000  Level FlightAware
06:09AM -34.0810 147.1910 260° West 397 457 34,000 300 Level FlightAware
06:09AM -34.0960 147.1004 260° West 391 450 34,400  Climbing Aus ATC (RADAR)
06:09AM -34.0950 147.1030 260° West 397 457 34,000 -720 Descending FlightAware
06:10AM -34.1070 147.0240 260° West 397 457 34,000  Level FlightAware
06:10AM -34.1150 146.9710 260° West 396 456 34,000  Level FlightAware
06:11AM -34.1290 146.8800 259° West 395 455 34,000  Level FlightAware
06:12AM -34.1410 146.8010 260° West 394 453 34,000  Level FlightAware
06:12AM -34.1560 146.7040 259° West 395 455 34,000  Level FlightAware
06:13AM -34.1700 146.6080 259° West 396 456 34,000 480 Level FlightAware
06:13AM -34.1714 146.6014 259° West 389 448 34,400 720 Climbing Aus ATC (RADAR)
06:14AM -34.1814 146.5364 259° West 390 449 34,400 -660 Level Aus ATC (RADAR)
06:14AM -34.1830 146.5210 259° West 397 457 34,000 -480 Descending FlightAware
06:15AM -34.1970 146.4240 260° West 397 457 34,000  Level FlightAware
06:15AM -34.2110 146.3340 259° West 399 459 34,000  Level FlightAware
06:16AM -34.2230 146.2480 259° West 399 459 34,000 480 Level FlightAware
06:16AM -34.2257 146.2314 259° West 392 451 34,400  Climbing Aus ATC (RADAR)
06:17AM -34.2360 146.1590 260° West 400 460 34,000 -360 Descending FlightAware
06:17AM -34.2490 146.0710 260° West 398 458 34,000 300 Level FlightAware
06:18AM -34.2608 145.9795 260° West 391 450 34,400  Climbing Aus ATC (RADAR)
06:18AM -34.2600 145.9830 260° West 395 455 34,000 -600 Descending FlightAware
06:19AM -34.2710 145.8970 260° West 394 453 34,000 480 Level FlightAware
06:19AM -34.2725 145.8816 260° West 389 448 34,400  Climbing Aus ATC (RADAR)
06:19AM -34.2830 145.7990 262° West 394 453 34,000 -300 Descending FlightAware
06:20AM -34.2940 145.7080 262° West 395 455 34,000  Level FlightAware
06:21AM -34.3040 145.6250 262° West 397 457 34,000  Level FlightAware
06:21AM -34.3160 145.5220 262° West 398 458 34,000  Level FlightAware
06:22AM -34.3250 145.4450 262° West 398 458 34,000  Level FlightAware
06:23AM -34.3360 145.3540 262° West 396 456 34,000 240 Level FlightAware
06:23AM -34.3482 145.2573 262° West 392 451 34,400  Climbing Aus ATC (RADAR)
06:23AM -34.3480 145.2580 262° West 396 456 34,000  Descending FlightAware
06:24AM -34.3569 145.1801 262° West 393 452 34,400  Climbing Aus ATC (RADAR)
06:24AM -34.3580 145.1670 262° West 397 457 34,000  Descending FlightAware
06:25AM -34.3659 145.1032 262° West 393 452 34,400  Climbing Aus ATC (RADAR)
06:25AM -34.3700 145.0700 262° West 395 455 34,000  Descending FlightAware
06:25AM -34.3786 144.9934 262° West 392 451 34,400  Climbing Aus ATC (RADAR)
06:25AM -34.3790 144.9860 262° West 394 453 34,000 -480 Descending FlightAware
06:26AM -34.3910 144.8840 262° West 394 453 34,000  Level FlightAware
06:27AM -34.4010 144.7990 262° West 394 453 34,000  Level FlightAware
06:28AM -34.4110 144.7090 262° West 395 455 34,000 540 Level FlightAware
06:28AM -34.4122 144.6986 262° West 390 449 34,400 600 Climbing Aus ATC (RADAR)
06:28AM -34.4210 144.6220 262° West 391 450 34,400 -660 Level Aus ATC (RADAR)
06:28AM -34.4210 144.6230 262° West 395 455 34,000  Descending FlightAware
06:29AM -34.4309 144.5347 262° West 390 449 34,400  Climbing Aus ATC (RADAR)
06:29AM -34.4300 144.5370 262° West 395 455 34,000  Descending FlightAware
06:29AM -34.4394 144.4580 262° West 392 451 34,400  Climbing Aus ATC (RADAR)
06:30AM -34.4410 144.4450 262° West 395 455 34,000 -540 Descending FlightAware
06:30AM -34.4500 144.3600 263° West 395 455 34,000  Level FlightAware
06:31AM -34.4610 144.2600 262° West 394 453 34,000  Level FlightAware
06:32AM -34.4700 144.1760 263° West 393 452 34,000  Level FlightAware
06:32AM -34.4800 144.0870 262° West 393 452 34,000  Level FlightAware
06:33AM -34.4880 144.0110 262° West 393 452 34,000 360 Level FlightAware
06:33AM -34.4905 143.9892 262° West 388 447 34,300 420 Climbing Aus ATC (RADAR)
06:34AM -34.4988 143.9126 262° West 390 449 34,300 -540 Level Aus ATC (RADAR)
06:34AM -34.4980 143.9150 262° West 393 452 34,000 -360 Descending FlightAware
06:35AM -34.5100 143.8030 263° West 392 451 34,000 180 Level FlightAware
06:35AM -34.5215 143.6955 263° West 387 445 34,300  Climbing Aus ATC (RADAR)
06:35AM -34.5210 143.6970 263° West 392 451 34,000  Descending FlightAware
06:36AM -34.5292 143.6201 263° West 387 445 34,300  Climbing Aus ATC (RADAR)
06:36AM -34.5300 143.6130 263° West 393 452 34,000 600 Descending FlightAware
06:37AM -34.5400 143.5140 263° West 392 451 34,800 1,260 Climbing FlightAware
06:37AM -34.5500 143.4160 263° West 385 443 35,900 900 Climbing FlightAware
06:38AM -34.5580 143.3410 263° West 389 448 36,000 60 Climbing FlightAware
06:39AM -34.5670 143.2540 263° West 388 447 36,000 240 Level FlightAware
06:39AM -34.5745 143.1780 263° West 386 444 36,300  Climbing Aus ATC (RADAR)
06:39AM -34.5750 143.1710 263° West 388 447 36,000  Descending FlightAware
06:40AM -34.5818 143.1027 263° West 385 443 36,300  Climbing Aus ATC (RADAR)
06:40AM -34.5830 143.0930 263° West 385 443 36,000  Descending FlightAware
06:40AM -34.5896 143.0277 263° West 383 441 36,300  Climbing Aus ATC (RADAR)
06:41AM -34.5910 143.0080 263° West 385 443 36,000 -360 Descending FlightAware
06:41AM -34.6010 142.9090 263° West 385 443 36,000  Level FlightAware
06:42AM -34.6090 142.8230 264° West 386 444 36,000 180 Level FlightAware
06:43AM -34.6189 142.7268 264° West 385 443 36,300  Climbing Aus ATC (RADAR)
06:43AM -34.6190 142.7260 264° West 386 444 36,000 -480 Descending FlightAware
06:43AM -34.6270 142.6390 264° West 388 447 36,000  Level FlightAware
06:44AM -34.6360 142.5410 264° West 390 449 36,000  Level FlightAware
06:45AM -34.6420 142.4850 263° West 390 449 36,000  Level FlightAware
06:45AM -34.6510 142.3860 264° West 391 450 36,000  Level FlightAware
06:46AM -34.6600 142.2890 264° West 392 451 36,000 120 Level FlightAware
06:47AM -34.6689 142.1935 264° West 390 449 36,200  Climbing Aus ATC (RADAR)
06:47AM -34.6700 142.1760 264° West 394 453 36,000  Descending FlightAware
06:48AM -34.6787 142.0840 264° West 390 449 36,200  Climbing Aus ATC (RADAR)
06:48AM -34.6780 142.0850 264° West 394 453 36,000 -300 Descending FlightAware
06:48AM -34.6870 141.9890 263° West 394 453 36,000  Level FlightAware
06:49AM -34.6950 141.9020 264° West 392 451 36,000  Level FlightAware
06:50AM -34.7030 141.8130 264° West 391 450 36,000 240 Level FlightAware
06:50AM -34.7039 141.7995 264° West 389 448 36,200 300 Climbing Aus ATC (RADAR)
06:50AM -34.7108 141.7236 264° West 387 445 36,200 -300 Level Aus ATC (RADAR)
06:51AM -34.7110 141.7160 264° West 391 450 36,000  Descending FlightAware
06:51AM -34.7173 141.6470 264° West 390 449 36,200  Climbing Aus ATC (RADAR)
06:51AM -34.7180 141.6320 264° West 393 452 36,000 -240 Descending FlightAware
06:52AM -34.7260 141.5400 264° West 394 453 36,000  Level FlightAware
06:53AM -34.7340 141.4530 264° West 393 452 36,000  Level FlightAware
06:53AM -34.7430 141.3500 264° West 394 453 36,000 240 Level FlightAware
06:53AM -34.7437 141.3398 264° West 392 451 36,200 300 Climbing Aus ATC (RADAR)
06:54AM -34.7492 141.2740 264° West 391 450 36,200 -300 Level Aus ATC (RADAR)
06:54AM -34.7510 141.2500 264° West 393 452 36,000 -300 Descending FlightAware
06:55AM -34.7570 141.1750 264° West 392 451 36,000  Level FlightAware
06:55AM -34.7660 141.0690 264° West 389 448 36,000  Level FlightAware
06:56AM -34.7710 141.0000 265° West 388 447 36,000  Level FlightAware
06:57AM -34.7790 140.9120 265° West 388 447 36,000 240 Level FlightAware
06:57AM -34.7799 140.9045 265° West 386 444 36,200 240 Climbing Aus ATC (RADAR)
06:57AM -34.7872 140.8181 265° West 386 444 36,200 -300 Level Aus ATC (RADAR)
06:57AM -34.7860 140.8240 265° West 389 448 36,000  Descending FlightAware
06:58AM -34.7918 140.7530 265° West 385 443 36,200  Climbing Aus ATC (RADAR)
06:58AM -34.7920 140.7430 265° West 389 448 36,000 -240 Descending FlightAware
06:59AM -34.8000 140.6480 264° West 389 448 36,000  Level FlightAware
06:59AM -34.8060 140.5620 265° West 388 447 36,000  Level FlightAware
07:00AM -34.8130 140.4730 265° West 387 445 36,000 120 Level FlightAware
07:01AM -34.8206 140.3852 265° West 386 444 36,200  Climbing Aus ATC (RADAR)
07:01AM -34.8190 140.3920 265° West 389 448 36,000 -300 Descending FlightAware
07:01AM -34.8260 140.3040 264° West 391 450 36,000  Level FlightAware
07:02AM -34.8330 140.2120 265° West 392 451 36,000  Level FlightAware
07:03AM -34.8400 140.1220 265° West 391 450 36,000 120 Level FlightAware
07:04AM -34.8482 140.0147 265° West 389 448 36,200  Climbing Aus ATC (RADAR)
07:04AM -34.8490 139.9950 265° West 389 448 36,000 -240 Descending FlightAware
07:04AM -34.8550 139.9050 265° West 389 448 36,000  Level FlightAware
07:05AM -34.8620 139.8180 264° West 390 449 36,000  Level FlightAware
07:06AM -34.8680 139.7340 265° West 389 448 36,000 120 Level FlightAware
07:06AM -34.8741 139.6454 265° West 384 442 36,200  Climbing Aus ATC (RADAR)
07:06AM -34.8750 139.6310 265° West 386 444 36,000 -300 Descending FlightAware
07:07AM -34.8810 139.5470 265° West 384 442 36,000 120 Level FlightAware
07:08AM -34.8859 139.4731 265° West 383 441 36,200  Climbing Aus ATC (RADAR)
07:08AM -34.8860 139.4660 265° West 383 441 36,000  Descending FlightAware
07:09AM -34.8947 139.3448 265° West 380 437 36,200  Climbing Aus ATC (RADAR)
07:09AM -34.8950 139.3430 265° West 384 442 36,000 -300 Descending FlightAware
07:09AM -34.9000 139.2560 265° West 384 442 36,000 240 Level FlightAware
07:09AM -34.9013 139.2479 265° West 384 442 36,200 360 Climbing Aus ATC (RADAR)
07:10AM -34.9050 139.1836 265° West 383 441 36,200 -300 Level Aus ATC (RADAR)
07:10AM -34.9070 139.1580 265° West 384 442 36,000  Descending FlightAware
07:11AM -34.9151 139.0334 265° West 382 440 36,200  Climbing Aus ATC (RADAR)
07:11AM -34.9140 139.0520 265° West 383 441 36,000  Descending FlightAware
07:12AM -34.9198 138.9588 265° West 380 437 36,200  Climbing Aus ATC (RADAR)
07:12AM -34.9200 138.9550 265° West 381 438 36,000  Descending FlightAware
07:12AM -34.9251 138.8733 265° West 381 438 36,200  Climbing Aus ATC (RADAR)
07:12AM -34.9260 138.8580 265° West 383 441 36,000 -240 Descending FlightAware
07:13AM -34.9320 138.7600 266° West 384 442 36,000  Level FlightAware
07:14AM -34.9360 138.6970 266° West 385 443 36,000  Level FlightAware
07:14AM -34.9420 138.5970 266° West 387 445 36,000  Level FlightAware
07:15AM -34.9480 138.5130 265° West 386 444 36,000  Level FlightAware
07:16AM -34.9560 138.4140 264° West 386 444 36,000 120 Level FlightAware
07:16AM -34.9629 138.3306 264° West 385 443 36,200  Climbing Aus ATC (RADAR)
07:17AM -34.9630 138.3270 264° West 387 445 36,000  Descending FlightAware
07:17AM -34.9698 138.2435 264° West 388 447 36,200  Climbing Aus ATC (RADAR)
07:17AM -34.9710 138.2300 264° West 389 448 36,000 -300 Descending FlightAware
07:18AM -34.9770 138.1530 265° West 389 448 36,000  Level FlightAware
07:19AM -34.9850 138.0560 264° West 390 449 36,000  Level FlightAware
07:19AM -34.9910 137.9770 265° West 390 449 36,000  Level FlightAware
07:20AM -34.9990 137.8800 264° West 390 449 36,000 120 Level FlightAware
07:21AM -35.0062 137.7747 264° West 390 449 36,200  Climbing Aus ATC (RADAR)
07:21AM -35.0080 137.7600 264° West 391 450 36,000 -300 Descending FlightAware
07:22AM -35.0150 137.6720 264° West 392 451 36,000  Level FlightAware
07:22AM -35.0220 137.5740 265° West 391 450 36,000  Level FlightAware
07:23AM -35.0290 137.4830 265° West 390 449 36,000 240 Level FlightAware
07:23AM -35.0282 137.4788 265° West 391 450 36,200  Climbing Aus ATC (RADAR)
07:24AM -35.0350 137.3970 265° West 389 448 36,000 -180 Descending FlightAware
07:24AM -35.0410 137.3210 265° West 388 447 36,000 240 Level FlightAware
07:24AM -35.0410 137.3045 265° West 388 447 36,200 300 Climbing Aus ATC (RADAR)
07:25AM -35.0464 137.2281 265° West 389 448 36,200 -360 Level Aus ATC (RADAR)
07:25AM -35.0480 137.2250 265° West 389 448 36,000 -300 Descending FlightAware
07:26AM -35.0530 137.1460 266° West 391 450 36,000  Level FlightAware
07:26AM -35.0590 137.0590 265° West 392 451 36,000  Level FlightAware
07:27AM -35.0660 136.9620 265° West 393 452 36,000  Level FlightAware
07:28AM -35.0720 136.8810 265° West 393 452 36,000  Level FlightAware
07:28AM -35.0780 136.7930 265° West 393 452 36,000  Level FlightAware
07:29AM -35.0840 136.7020 265° West 393 452 36,000 240 Level FlightAware
07:29AM -35.0839 136.6894 265° West 392 451 36,200 300 Climbing Aus ATC (RADAR)
07:30AM -35.0887 136.6119 265° West 394 453 36,200 -360 Level Aus ATC (RADAR)
07:30AM -35.0900 136.6150 265° West 395 455 36,000  Descending FlightAware
07:30AM -35.0943 136.5342 265° West 397 457 36,200  Climbing Aus ATC (RADAR)
07:30AM -35.0970 136.5130 265° West 397 457 36,000 -240 Descending FlightAware
07:31AM -35.1020 136.4300 266° West 397 457 36,000 480 Level FlightAware
07:32AM -35.1080 136.3360 266° West 393 452 36,700 840 Climbing FlightAware
07:32AM -35.1131 136.2367 266° West 384 442 37,200 360 Climbing Aus ATC (RADAR)
07:32AM -35.1140 136.2390 266° West 381 438 37,000  Descending FlightAware
07:33AM -35.1187 136.1618 266° West 382 440 37,200  Climbing Aus ATC (RADAR)
07:33AM -35.1190 136.1650 266° West 382 440 37,000  Descending FlightAware
07:34AM -35.1227 136.0758 266° West 383 441 37,200  Climbing Aus ATC (RADAR)
07:34AM -35.1240 136.0810 266° West 382 440 37,000  Descending FlightAware
07:34AM -35.1281 136.0005 266° West 383 441 37,200  Climbing Aus ATC (RADAR)
07:34AM -35.1300 135.9820 266° West 382 440 37,000  Descending FlightAware
07:35AM -35.1366 135.8613 266° West 382 440 37,200  Climbing Aus ATC (RADAR)
07:35AM -35.1370 135.8700 266° West 381 438 37,000 -240 Descending FlightAware
07:36AM -35.1440 135.7560 266° West 383 441 37,000  Level FlightAware
07:37AM -35.1500 135.6580 266° West 387 445 37,000 240 Level FlightAware
07:37AM -35.1503 135.6449 266° West 388 447 37,200 300 Climbing Aus ATC (RADAR)
07:38AM -35.1537 135.5682 266° West 389 448 37,200 -240 Level Aus ATC (RADAR)
07:38AM -35.1580 135.5200 266° West 390 449 37,000 -240 Descending FlightAware
07:39AM -35.1610 135.4510 267° West 390 449 37,000  Level FlightAware
07:39AM -35.1670 135.3550 267° West 392 451 37,000 240 Level FlightAware
07:39AM -35.1683 135.3262 267° West 393 452 37,200 240 Climbing Aus ATC (RADAR)
07:40AM -35.1707 135.2486 267° West 394 453 37,200 -300 Level Aus ATC (RADAR)
07:40AM -35.1730 135.2470 267° West 393 452 37,000 -300 Descending FlightAware
07:41AM -35.1780 135.1560 266° West 393 452 37,000  Level FlightAware
07:41AM -35.1830 135.0600 266° West 394 453 37,000  Level FlightAware
07:42AM -35.1890 134.9610 266° West 394 453 37,000 120 Level FlightAware
07:43AM -35.1899 134.8602 266° West 395 455 37,200  Climbing Aus ATC (RADAR)
07:43AM -35.1940 134.8440 266° West 395 455 37,000 -240 Descending FlightAware
07:44AM -35.1970 134.7760 267° West 395 455 37,000  Level FlightAware
07:45AM -35.2050 134.6380 267° West 393 452 37,000 180 Level FlightAware
07:45AM -35.2075 134.6176 267° West 394 453 37,200 360 Climbing Aus ATC (RADAR)
07:45AM -35.2108 134.5505 267° West 397 457 37,200 -300 Level Aus ATC (RADAR)
07:45AM -35.2090 134.5470 267° West 393 452 37,000 -240 Descending FlightAware
07:46AM -35.2120 134.4770 267° West 393 452 37,000 120 Level FlightAware
07:47AM -35.2172 134.3282 267° West 395 455 37,200  Climbing Aus ATC (RADAR)
07:47AM -35.2170 134.3640 267° West 393 452 37,000 -300 Descending FlightAware
07:48AM -35.2200 134.2960 267° West 393 452 37,000  Level FlightAware
07:48AM -35.2240 134.2030 267° West 393 452 37,000  Level FlightAware
07:49AM -35.2260 134.1350 267° West 393 452 37,000 300 Level FlightAware
07:49AM -35.2311 134.0278 267° West 395 455 37,200  Climbing Aus ATC (RADAR)
07:50AM -35.2351 133.9499 267° West 395 455 37,000 -300 Descending Aus ATC (RADAR)
07:50AM -35.2300 134.0450 267° West 393 452 37,000  Level FlightAware
07:50AM -35.2330 133.9750 267° West 393 452 37,000  Level FlightAware
07:51AM -35.2360 133.9070 267° West 393 452 37,000  Level FlightAware
07:52AM -35.2482 133.6724 267° West 395 455 37,000  Level Aus ATC (RADAR)
07:52AM -35.2400 133.8140 267° West 393 452 37,000  Level FlightAware
07:53AM -35.2430 133.7460 267° West 393 452 37,000  Level FlightAware
07:53AM -35.2470 133.6550 267° West 393 452 37,000  Level FlightAware
07:54AM -35.2500 133.5870 267° West 393 452 37,000  Level FlightAware
07:57AM -35.2204 133.2468 276° West  Level FlightAware Approximate
07:58AM -35.2088 133.1160 276° West  Level FlightAware Approximate
07:59AM -35.1971 132.9852 276° West  Level FlightAware Approximate
08:00AM -35.1852 132.8545 276° West  Level FlightAware Approximate
08:00AM -35.1647 132.6237 276° West 38,000  Level Aus ATC (Calculated)
08:02AM -35.1448 132.4140 277° West  Level FlightAware Approximate
08:02AM -35.1378 132.3425 276° West 38,000  Level Aus ATC (Calculated)
08:04AM -35.1171 132.1308 277° West  Level FlightAware Approximate
08:05AM -35.1042 131.9998 277° West  Level FlightAware Approximate
08:05AM -35.0963 131.9210 276° West 38,000  Level Aus ATC (Calculated)
08:05AM -35.0963 131.9210 276° West 38,000  Level Aus ATC (Calculated)
08:07AM -35.0787 131.7466 277° West  Level FlightAware Approximate
08:07AM -35.0750 131.7104 276° West 38,000  Level Aus ATC (Calculated)
08:08AM -35.0642 131.6052 276° West 38,000  Level Aus ATC (Calculated)
08:09AM -35.0414 131.3789 276° West 38,000  Level Aus ATC (Calculated)
08:11AM -35.0579 131.5468 97° East  Level FlightAware Approximate
08:11AM -35.0197 131.1668 276° West 38,000  Level Aus ATC (Calculated)
08:13AM -35.0407 131.3738 97° East  Level FlightAware Approximate
08:13AM -34.9885 130.8687 276° West 38,000  Level Aus ATC (Calculated)
08:13AM -34.9885 130.8687 276° West 38,000  Level Aus ATC (Calculated)
08:14AM -34.9693 130.6887 277° West 38,000  Level Aus ATC (Calculated)
08:15AM -35.0051 131.0277 97° East  Level FlightAware Approximate
08:16AM -34.9483 130.5396 277° West  Level Estimated
08:17AM -34.9343 130.4091 277° West  Level FlightAware Approximate
08:17AM -34.9326 130.3515 277° West 38,000  Level Aus ATC (Calculated)
08:17AM -34.9326 130.3515 277° West 38,000  Level Aus ATC (Calculated)
08:19AM -34.9078 130.1277 278° West  Level FlightAware Approximate
08:20AM -34.8931 129.9974 278° West  Level FlightAware Approximate
08:21AM -34.8783 129.8671 278° West  Level FlightAware Approximate
08:22AM -34.8633 129.7369 278° West  Level FlightAware Approximate
08:23AM -34.8482 129.6067 278° West  Level FlightAware Approximate
08:24AM -34.8330 129.4766 278° West  Level FlightAware Approximate
08:24AM -34.8233 129.3943 277° West 38,000  Level Aus ATC (Calculated)
08:25AM -34.8078 129.2642 278° West  Level FlightAware Approximate
08:26AM -34.7922 129.1342 278° West  Level FlightAware Approximate
08:26AM -34.7920 129.1324 277° West 38,000  Level Aus ATC (Calculated)
08:28AM -34.7620 128.8856 278° West  Level FlightAware Approximate
08:28AM -34.7400 128.7073 277° West 38,000  Level Aus ATC (Calculated)
08:29AM -34.7400 128.7073 277° West 38,000  Level Aus ATC (Calculated)
08:29AM -34.7290 128.6188 277° West 38,000  Level Aus ATC (Calculated)
08:31AM -34.7064 128.4393 279° West  Level FlightAware Approximate
08:32AM -34.6899 128.3096 279° West  Level FlightAware Approximate
08:33AM -34.6733 128.1800 279° West  Level FlightAware Approximate
08:34AM -34.6566 128.0505 279° West  Level FlightAware Approximate
08:34AM -34.6500 128.0000 278° West 38,000  Level Aus ATC (Calculated)
08:34AM -34.6377 127.9058 278° West 38,000  Level Aus ATC (Calculated)
08:36AM -34.6557 128.0440 99° East  Level FlightAware Approximate
08:36AM -34.6130 127.7175 278° West 38,000  Level Aus ATC (Calculated)
08:37AM -34.6307 127.8523 99° East  Level FlightAware Approximate
08:38AM -34.6483 127.9872 99° East  Level FlightAware Approximate
08:39AM -34.6658 128.1222 99° East  Level FlightAware Approximate
08:39AM -34.5626 127.3412 278° West 38,000  Level Aus ATC (Calculated)
08:41AM -34.5151 127.0768 279° West  Level Estimated
08:42AM -34.4972 126.9422 279° West  Level FlightAware Approximate
08:42AM -34.4980 126.8715 278° West 38,000  Level Aus ATC (Calculated)
08:43AM -34.4791 126.8076 279° West  Level FlightAware Approximate
08:43AM -34.4716 126.6838 278° West 38,000  Level Aus ATC (Calculated)
08:44AM -34.4700 126.6721 280° West  Level FlightAware Approximate
08:45AM -34.4497 126.5293 280° West  Level FlightAware Approximate
08:46AM -34.4305 126.3950 280° West  Level FlightAware Approximate
08:46AM -34.4181 126.3087 278° West 38,000  Level Aus ATC (Calculated)
08:47AM -34.3909 126.1214 278° West 38,000  Level Aus ATC (Calculated)
08:49AM -34.3630 125.9315 280° West  Level FlightAware Approximate
08:49AM -34.3634 125.9342 278° West 38,000  Level Aus ATC (Calculated)
08:51AM -34.3249 125.6752 280° West  Level FlightAware Approximate
08:51AM -34.3076 125.5601 279° West 38,000  Level Aus ATC (Calculated)
08:52AM -34.3047 125.5414 280° West  Level FlightAware Approximate
08:52AM -34.2934 125.4667 279° West 38,000  Level Aus ATC (Calculated)
08:54AM -34.2611 125.2550 280° West  Level FlightAware Approximate
08:55AM -34.2405 125.1213 281° West  Level FlightAware Approximate
08:56AM -34.2198 124.9877 281° West  Level FlightAware Approximate
08:57AM -34.2405 125.1213 101° East  Level FlightAware Approximate
08:58AM -34.2198 124.9877 281° West  Level FlightAware Approximate
08:59AM -34.2405 125.1213 101° East  Level FlightAware Approximate
08:59AM -34.1585 124.6008 279° West 38,000  Level Aus ATC (Calculated)
08:59AM -34.1426 124.5011 279° West 38,000  Level Aus ATC (Calculated)
09:01AM -34.1713 124.6811 101° East  Level FlightAware Approximate
09:02AM -34.1925 124.8145 101° East  Level FlightAware Approximate
09:02AM -34.0778 124.1027 279° West 38,000  Level Aus ATC (Calculated)
09:03AM -34.2135 124.9480 101° East  Level FlightAware Approximate
09:03AM -34.0449 123.9037 279° West 38,000  Level Aus ATC (Calculated)
09:04AM -34.0360 123.9173 281° West  Level Estimated
09:05AM -34.0124 123.7087 281° West  Level FlightAware Approximate
09:05AM -34.0117 123.7049 279° West 38,000  Level Aus ATC (Calculated)
09:07AM -33.9672 123.4415 281° West  Level FlightAware Approximate
09:08AM -33.9446 123.3088 282° West  Level FlightAware Approximate
09:08AM -33.9444 123.3077 279° West 38,000  Level Aus ATC (Calculated)
09:09AM -33.9218 123.1761 282° West  Level FlightAware Approximate
09:10AM -33.9109 123.1132 282° West  Level FlightAware Approximate
09:10AM -33.8931 123.0102 279° West 38,000  Level Aus ATC (Calculated)
09:12AM -33.8572 122.8049 282° West  Level FlightAware Approximate
09:13AM -33.8339 122.6725 282° West  Level FlightAware Approximate
09:13AM -33.8235 122.6141 278° West 38,000  Level Aus ATC (Calculated)
09:15AM -33.7779 122.3584 282° West  Level FlightAware Approximate
09:15AM -33.7705 122.3174 278° West 38,000  Level Aus ATC (Calculated)
09:16AM -33.7348 122.1198 278° West 38,000  Level Aus ATC (Calculated)
09:18AM -33.7002 121.9307 282° West  Level FlightAware Approximate
09:19AM -33.6760 121.7988 282° West  Level FlightAware Approximate
09:20AM -33.7002 121.9307 103° East  Level FlightAware Approximate
09:20AM -33.6177 121.6110 276° West 38,000  Level Aus ATC (Calculated)
09:21AM -33.6760 121.7988 282° West  Level FlightAware Approximate
09:22AM -33.6766 121.8102 110° East  Level FlightAware Approximate
09:22AM -33.5543 121.3984 274° West 38,000  Level Aus ATC (Calculated)
09:23AM -33.7141 121.9376 110° East  Level FlightAware Approximate
09:23AM -33.4907 121.1862 271° West 38,000  Level Aus ATC (Calculated)
09:24AM -33.6136 121.5974 110° East  Level FlightAware Approximate
09:25AM -33.5459 121.3701 110° East  Level FlightAware Approximate
09:25AM -33.4266 120.9743 267° West 38,000  Level Aus ATC (Calculated)
09:26AM -33.3838 120.8332 263° West 38,000 120 Level Aus ATC (Calculated)
09:27AM -33.3407 120.6923 258° West 38,000 120 Level Aus ATC (Calculated)
09:27AM -33.3407 120.6923 258° West 38,000 180 Level Aus ATC (Calculated)
09:28AM -33.2758 120.4811 247° West 38,000 180 Level Aus ATC (Calculated)
09:29AM -33.3889 120.8502 110° East  Level FlightAware Approximate
09:30AM -33.2373 120.3406 289° West  Level Estimated
09:31AM -33.4700 119.9383 289° West 434 499 38,900  Level Aus ATC (RADAR)
09:32AM -33.4012 119.8039 301° West 432 497 38,900  Level Aus ATC (RADAR)
09:33AM -33.3420 119.6785 299° West 429 494 38,900  Level Aus ATC (RADAR)
09:34AM -33.2797 119.5426 299° West 424 488 38,900  Level Aus ATC (RADAR)
09:36AM -33.2163 119.4075 299° West 424 488 38,900 60 Level Aus ATC (RADAR)
09:36AM -33.1930 119.3460 300° West 432 497 39,000  Climbing FlightAware
09:37AM -33.1514 119.2734 300° West 427 491 38,900  Descending Aus ATC (RADAR)
09:37AM -33.1550 119.2660 300° West 432 497 39,000 120 Climbing FlightAware
09:37AM -33.1140 119.1820 300° West 428 493 39,000  Level FlightAware
09:38AM -33.0690 119.0880 300° West 429 494 39,000 60 Level FlightAware
09:39AM -33.0230 119.0047 300° West 425 489 39,100  Climbing Aus ATC (RADAR)
09:39AM -33.0290 119.0050 300° West 430 495 39,000 -180 Descending FlightAware
09:40AM -32.9890 118.9240 300° West 431 496 39,000  Level FlightAware
09:40AM -32.9480 118.8370 299° West 432 497 39,000  Level FlightAware
09:41AM -32.9080 118.7560 299° West 432 497 39,000 120 Level FlightAware
09:41AM -32.8967 118.7465 299° West 425 489 39,100  Climbing Aus ATC (RADAR)
09:41AM -32.8680 118.6750 300° West 433 498 39,000  Descending FlightAware
09:42AM -32.8319 118.6107 300° West 429 494 39,100 -180 Climbing Aus ATC (RADAR)
09:42AM -32.8220 118.5800 300° West 434 499 38,900 -1,740 Descending FlightAware
09:43AM -32.7760 118.4860 300° West 434 499 37,400 -1,920 Descending FlightAware
09:44AM -32.7350 118.4030 300° West 424 488 36,200 -1,800 Descending FlightAware
09:44AM -32.6960 118.3240 300° West 419 482 35,000 -1,800 Descending FlightAware
09:45AM -32.6610 118.2530 300° West 414 476 34,000 -1,800 Descending FlightAware
09:46AM -32.6230 118.1770 301° West 404 465 32,800 -1,800 Descending FlightAware
09:46AM -32.5818 118.0998 301° West 393 452 31,700 -1,800 Descending Aus ATC (RADAR)
09:46AM -32.5810 118.0910 301° West 398 458 31,500 -1,680 Descending FlightAware
09:47AM -32.5430 118.0140 300° West 391 450 30,400 -1,620 Descending FlightAware
09:48AM -32.5070 117.9420 301° West 390 449 29,300 -1,380 Descending FlightAware
09:48AM -32.4633 117.8600 301° West 370 426 28,500 -1,260 Descending Aus ATC (RADAR)
09:48AM -32.4660 117.8600 301° West 369 425 28,400 -1,620 Descending FlightAware
09:49AM -32.4310 117.7910 301° West 360 414 27,400 -1,560 Descending FlightAware
09:50AM -32.4010 117.7310 301° West 356 410 26,500 -1,620 Descending FlightAware
09:50AM -32.3650 117.6550 301° West 350 403 25,200 -1,680 Descending FlightAware
09:50AM -32.3594 117.6481 301° West 341 392 25,200 -1,740 Level Aus ATC (RADAR)
09:51AM -32.3480 117.5910 287° West 343 395 24,200 -1,620 Descending FlightAware
09:52AM -32.3324 117.5303 287° West 330 380 23,500 -1,500 Descending Aus ATC (RADAR)
09:52AM -32.3310 117.5190 287° West 336 387 23,200 -960 Descending FlightAware
09:52AM -32.3120 117.4420 286° West 316 364 22,700 -840 Descending FlightAware
09:53AM -32.2990 117.3850 285° West 306 352 22,100 -1,080 Descending FlightAware
09:54AM -32.2807 117.3152 285° West 292 336 21,300 -1,260 Descending Aus ATC (RADAR)
09:54AM -32.2810 117.3130 285° West 301 346 21,200 -1,560 Descending FlightAware
09:54AM -32.2660 117.2480 285° West 304 350 20,200 -1,440 Descending FlightAware
09:55AM -32.2480 117.1760 286° West 302 348 19,200 -1,320 Descending FlightAware
09:56AM -32.2330 117.1140 286° West 297 342 18,400 -1,080 Descending FlightAware
09:56AM -32.2304 117.1093 286° West 290 334 18,500 -960 Climbing Aus ATC (RADAR)
09:57AM -32.2160 117.0440 286° West 289 333 17,700 -1,200 Descending FlightAware
09:57AM -32.2000 116.9780 286° West 285 328 16,800 -1,200 Descending FlightAware
09:58AM -32.1850 116.9180 286° West 282 325 16,000 -1,020 Descending FlightAware
09:58AM -32.1830 116.9138 286° West 272 313 16,100 -2,400 Climbing Aus ATC (RADAR)
09:58AM -32.1700 116.8830 297° West 293 337 15,000 -1,800 Descending FlightAware
09:59AM -32.1362 116.8347 297° West 290 334 14,300 -1,500 Descending Aus ATC (RADAR)
09:59AM -32.1320 116.8260 297° West 295 339 13,900 -1,620 Descending FlightAware
10:00AM -32.0980 116.7750 308° West 293 337 13,000 -1,320 Descending FlightAware
10:01AM -32.0630 116.7220 308° West 293 337 12,200 -1,380 Descending FlightAware
10:01AM -32.0340 116.6790 308° West 293 337 11,300 -1,320 Descending FlightAware
10:01AM -32.0267 116.6695 308° West 283 326 11,300 -1,500 Level Aus ATC (RADAR)
10:02AM -31.9970 116.6230 308° West 295 339 10,200 -1,500 Descending FlightAware
10:02AM -31.9750 116.5900 308° West 295 339 9,700 -1,140 Descending FlightAware
10:03AM -31.9490 116.5520 309° West 293 337 9,200 -1,140 Descending FlightAware
10:03AM -31.9310 116.5190 309° West 288 331 8,700 -1,020 Descending FlightAware
10:03AM -31.9222 116.5011 309° West 278 320 8,600 -900 Descending Aus ATC (RADAR)
10:04AM -31.9180 116.4930 300° West 285 328 8,400 -1,260 Descending FlightAware
10:04AM -31.9010 116.4600 301° West 282 325 7,900 -1,080 Descending FlightAware
10:04AM -31.8840 116.4260 300° West 277 319 7,500 -1,140 Descending FlightAware
10:05AM -31.8640 116.3870 301° West 272 313 6,900 -1,200 Descending FlightAware
10:05AM -31.8550 116.3690 300° West 276 318 6,600 -720 Descending FlightAware
10:06AM -31.8320 116.3240 301° West 258 297 6,300 -780 Descending FlightAware
10:06AM -31.8130 116.2880 302° West 257 296 5,800 -1,020 Descending FlightAware
10:07AM -31.7980 116.2580 300° West 256 295 5,400 -1,200 Descending FlightAware
10:07AM -31.7860 116.2200 290° West 257 296 4,700 -1,680 Descending FlightAware
10:08AM -31.7780 116.1860 285° West 254 292 3,900 -1,500 Descending FlightAware
10:08AM -31.7720 116.1610 286° West 251 289 3,600 -900 Descending FlightAware
10:08AM -31.7670 116.1390 285° West 249 287 3,400 -420 Descending FlightAware
10:09AM -31.7577 116.0983 285° West 232 267 3,300 -420 Descending Aus ATC (RADAR)
10:09AM -31.7580 116.1010 285° West 231 266 3,200 -720 Descending FlightAware
10:09AM -31.7690 116.0540 255° West 191 220 2,800 -600 Descending FlightAware
10:10AM -31.7820 116.0340 233° Southwest 189 217 2,500 -480 Descending FlightAware
10:10AM -31.7950 116.0150 231° Southwest 165 190 2,400 -180 Descending FlightAware
10:11AM -31.8070 116.0060 213° Southwest 162 186 2,400 -720 Level FlightAware
10:11AM -31.8380 115.9950 197° South 160 184 1,700 -840 Descending FlightAware
10:12AM -31.8540 115.9900 195° South 155 178 1,500 -720 Descending FlightAware
10:12AM -31.8700 115.9860 192° South 134 154 1,100 -840 Descending FlightAware
10:12AM -31.8870 115.9810 194° South 122 140 800 -720 Descending FlightAware
10:13AM -31.9030 115.9760 195° South 137 158 500 -780 Descending FlightAware
10:13AM -31.9200 115.9710 194° South 134 154 100 -900 Descending FlightAware
10:14AM -31.9380 115.9660 193° South 135 155 -240 Descending FlightAware
10:14AM -31.9490 115.9630 193° South 36 41  Level FlightAware